Illizi, Algeria
Current Conditions -  °F | °C
As of 9:00 AM on Friday 19 Dec 2014 (Local Time) from DAAP Reporting Station
Few Clouds Few Clouds  
Wind Chill: 46°   Ceiling: Unl
Heat Index: 46°   Visibility: 6mi
Dew Point: 32°   Wind: 0mph
Humidity: 57%   Direction: NA
Pressure: 30.3"   Gusts: NA
Location:  26.5°N, 8.42°E
Report Text: DAAP 190800Z 00000KT 9999 FEW046 08/00 Q1026
Loading
Personal Weather Stations






























Interactive Weather Map New forecast layout! Learn more

10-Day Weather Forecast

Advertisements
Track Severe Weather on mobile